sensor_id;sensor_type;location;lat;lon;timestamp;P1;durP1;ratioP1;P2;durP2;ratioP2
28353;SDS011;15603;50.878;8.036;2023-03-16T00:00:17;17.63;;;6.93;;
28353;SDS011;15603;50.878;8.036;2023-03-16T00:02:44;17.27;;;6.88;;
28353;SDS011;15603;50.878;8.036;2023-03-16T00:05:12;16.08;;;5.28;;
28353;SDS011;15603;50.878;8.036;2023-03-16T00:07:39;21.83;;;6.28;;
28353;SDS011;15603;50.878;8.036;2023-03-16T00:10:08;15.52;;;6.35;;
28353;SDS011;15603;50.878;8.036;2023-03-16T00:12:38;16.90;;;6.25;;
28353;SDS011;15603;50.878;8.036;2023-03-16T00:15:05;20.75;;;6.40;;
28353;SDS011;15603;50.878;8.036;2023-03-16T00:17:33;21.23;;;6.63;;
28353;SDS011;15603;50.878;8.036;2023-03-16T00:20:00;15.73;;;6.25;;
28353;SDS011;15603;50.878;8.036;2023-03-16T00:22:32;19.80;;;6.47;;
28353;SDS011;15603;50.878;8.036;2023-03-16T00:24:59;19.52;;;6.70;;
28353;SDS011;15603;50.878;8.036;2023-03-16T00:27:27;18.98;;;6.90;;
28353;SDS011;15603;50.878;8.036;2023-03-16T00:29:54;18.15;;;5.85;;
28353;SDS011;15603;50.878;8.036;2023-03-16T00:32:23;18.77;;;6.15;;
28353;SDS011;15603;50.878;8.036;2023-03-16T00:34:52;22.98;;;6.10;;
28353;SDS011;15603;50.878;8.036;2023-03-16T00:37:20;12.80;;;5.75;;
28353;SDS011;15603;50.878;8.036;2023-03-16T00:39:50;15.90;;;5.80;;
28353;SDS011;15603;50.878;8.036;2023-03-16T00:42:18;14.13;;;5.30;;
28353;SDS011;15603;50.878;8.036;2023-03-16T00:44:46;16.00;;;5.55;;
28353;SDS011;15603;50.878;8.036;2023-03-16T00:47:13;12.25;;;5.30;;
28353;SDS011;15603;50.878;8.036;2023-03-16T00:49:41;13.05;;;5.35;;
28353;SDS011;15603;50.878;8.036;2023-03-16T00:52:11;17.50;;;5.82;;
28353;SDS011;15603;50.878;8.036;2023-03-16T00:54:42;20.42;;;5.65;;
28353;SDS011;15603;50.878;8.036;2023-03-16T00:57:11;20.60;;;6.82;;
28353;SDS011;15603;50.878;8.036;2023-03-16T00:59:40;16.95;;;5.95;;
28353;SDS011;15603;50.878;8.036;2023-03-16T01:02:08;16.52;;;5.60;;
28353;SDS011;15603;50.878;8.036;2023-03-16T01:04:36;17.15;;;6.38;;
28353;SDS011;15603;50.878;8.036;2023-03-16T01:07:03;17.23;;;6.20;;
28353;SDS011;15603;50.878;8.036;2023-03-16T01:09:32;20.73;;;6.88;;
28353;SDS011;15603;50.878;8.036;2023-03-16T01:12:03;20.50;;;5.72;;
28353;SDS011;15603;50.878;8.036;2023-03-16T01:14:43;24.73;;;5.95;;
28353;SDS011;15603;50.878;8.036;2023-03-16T01:17:14;13.45;;;5.60;;
28353;SDS011;15603;50.878;8.036;2023-03-16T01:19:43;28.60;;;6.38;;
28353;SDS011;15603;50.878;8.036;2023-03-16T01:22:10;14.57;;;6.65;;
28353;SDS011;15603;50.878;8.036;2023-03-16T01:24:38;15.43;;;6.05;;
28353;SDS011;15603;50.878;8.036;2023-03-16T01:27:06;15.48;;;6.47;;
28353;SDS011;15603;50.878;8.036;2023-03-16T01:29:35;13.68;;;5.10;;
28353;SDS011;15603;50.878;8.036;2023-03-16T01:32:03;15.98;;;6.10;;
28353;SDS011;15603;50.878;8.036;2023-03-16T01:34:32;15.15;;;5.95;;
28353;SDS011;15603;50.878;8.036;2023-03-16T01:37:00;15.45;;;5.65;;
28353;SDS011;15603;50.878;8.036;2023-03-16T01:39:39;16.98;;;5.43;;
28353;SDS011;15603;50.878;8.036;2023-03-16T01:42:07;16.55;;;5.72;;
28353;SDS011;15603;50.878;8.036;2023-03-16T01:44:49;16.10;;;6.15;;
28353;SDS011;15603;50.878;8.036;2023-03-16T01:47:17;26.75;;;7.05;;
28353;SDS011;15603;50.878;8.036;2023-03-16T01:49:44;18.35;;;7.18;;
28353;SDS011;15603;50.878;8.036;2023-03-16T01:52:15;15.05;;;5.78;;
28353;SDS011;15603;50.878;8.036;2023-03-16T01:54:58;17.10;;;5.65;;
28353;SDS011;15603;50.878;8.036;2023-03-16T01:57:32;24.23;;;5.68;;
28353;SDS011;15603;50.878;8.036;2023-03-16T02:02:52;17.80;;;4.80;;
28353;SDS011;15603;50.878;8.036;2023-03-16T02:05:40;14.32;;;4.97;;
28353;SDS011;15603;50.878;8.036;2023-03-16T02:08:14;14.43;;;4.75;;
28353;SDS011;15603;50.878;8.036;2023-03-16T02:10:43;12.73;;;4.40;;
28353;SDS011;15603;50.878;8.036;2023-03-16T02:13:11;13.45;;;5.20;;
28353;SDS011;15603;50.878;8.036;2023-03-16T02:15:38;16.85;;;4.70;;
28353;SDS011;15603;50.878;8.036;2023-03-16T02:18:06;22.30;;;4.63;;
28353;SDS011;15603;50.878;8.036;2023-03-16T02:23:32;12.45;;;4.20;;
28353;SDS011;15603;50.878;8.036;2023-03-16T02:26:06;15.88;;;4.95;;
28353;SDS011;15603;50.878;8.036;2023-03-16T02:31:24;13.93;;;5.03;;
28353;SDS011;15603;50.878;8.036;2023-03-16T02:33:53;16.35;;;4.90;;
28353;SDS011;15603;50.878;8.036;2023-03-16T02:36:22;16.38;;;4.38;;
28353;SDS011;15603;50.878;8.036;2023-03-16T02:38:49;10.80;;;4.70;;
28353;SDS011;15603;50.878;8.036;2023-03-16T02:41:18;17.10;;;4.72;;
28353;SDS011;15603;50.878;8.036;2023-03-16T02:43:56;18.45;;;4.28;;
28353;SDS011;15603;50.878;8.036;2023-03-16T02:46:33;13.25;;;4.57;;
28353;SDS011;15603;50.878;8.036;2023-03-16T02:51:53;19.80;;;4.82;;
28353;SDS011;15603;50.878;8.036;2023-03-16T02:54:20;24.63;;;4.50;;
28353;SDS011;15603;50.878;8.036;2023-03-16T02:56:47;12.32;;;4.95;;
28353;SDS011;15603;50.878;8.036;2023-03-16T02:59:15;21.40;;;4.38;;
28353;SDS011;15603;50.878;8.036;2023-03-16T03:01:42;12.07;;;4.07;;
28353;SDS011;15603;50.878;8.036;2023-03-16T03:04:09;13.15;;;4.00;;
28353;SDS011;15603;50.878;8.036;2023-03-16T03:06:36;17.48;;;4.78;;
28353;SDS011;15603;50.878;8.036;2023-03-16T03:09:04;17.10;;;4.68;;
28353;SDS011;15603;50.878;8.036;2023-03-16T03:11:31;17.08;;;5.07;;
28353;SDS011;15603;50.878;8.036;2023-03-16T03:13:58;12.18;;;4.22;;
28353;SDS011;15603;50.878;8.036;2023-03-16T03:16:27;23.65;;;5.25;;
28353;SDS011;15603;50.878;8.036;2023-03-16T03:18:55;13.23;;;4.43;;
28353;SDS011;15603;50.878;8.036;2023-03-16T03:21:24;15.10;;;4.40;;
28353;SDS011;15603;50.878;8.036;2023-03-16T03:23:51;18.70;;;4.15;;
28353;SDS011;15603;50.878;8.036;2023-03-16T03:26:18;14.50;;;4.50;;
28353;SDS011;15603;50.878;8.036;2023-03-16T03:28:47;11.93;;;4.18;;
28353;SDS011;15603;50.878;8.036;2023-03-16T03:31:14;11.23;;;3.95;;
28353;SDS011;15603;50.878;8.036;2023-03-16T03:33:43;10.27;;;3.90;;
28353;SDS011;15603;50.878;8.036;2023-03-16T03:36:11;11.43;;;3.17;;
28353;SDS011;15603;50.878;8.036;2023-03-16T03:38:39;9.90;;;3.75;;
28353;SDS011;15603;50.878;8.036;2023-03-16T03:41:07;15.45;;;4.25;;
28353;SDS011;15603;50.878;8.036;2023-03-16T03:43:37;10.73;;;3.55;;
28353;SDS011;15603;50.878;8.036;2023-03-16T03:46:06;14.82;;;4.18;;
28353;SDS011;15603;50.878;8.036;2023-03-16T03:48:34;21.45;;;5.22;;
28353;SDS011;15603;50.878;8.036;2023-03-16T03:51:01;18.35;;;5.38;;
28353;SDS011;15603;50.878;8.036;2023-03-16T03:53:37;18.30;;;5.18;;
28353;SDS011;15603;50.878;8.036;2023-03-16T03:56:20;19.85;;;4.50;;
28353;SDS011;15603;50.878;8.036;2023-03-16T03:58:48;18.17;;;4.55;;
28353;SDS011;15603;50.878;8.036;2023-03-16T04:01:24;10.60;;;3.90;;
28353;SDS011;15603;50.878;8.036;2023-03-16T04:03:51;9.43;;;3.70;;
28353;SDS011;15603;50.878;8.036;2023-03-16T04:06:18;14.88;;;4.80;;
28353;SDS011;15603;50.878;8.036;2023-03-16T04:08:46;10.70;;;4.13;;
28353;SDS011;15603;50.878;8.036;2023-03-16T04:11:17;12.43;;;3.30;;
28353;SDS011;15603;50.878;8.036;2023-03-16T04:13:44;12.88;;;4.30;;
28353;SDS011;15603;50.878;8.036;2023-03-16T04:16:12;13.60;;;4.35;;
28353;SDS011;15603;50.878;8.036;2023-03-16T04:18:43;15.13;;;4.93;;
28353;SDS011;15603;50.878;8.036;2023-03-16T04:21:13;19.15;;;5.55;;
28353;SDS011;15603;50.878;8.036;2023-03-16T04:23:46;8.25;;;3.53;;
28353;SDS011;15603;50.878;8.036;2023-03-16T04:26:14;16.23;;;3.83;;
28353;SDS011;15603;50.878;8.036;2023-03-16T04:28:44;16.55;;;4.55;;
28353;SDS011;15603;50.878;8.036;2023-03-16T04:31:14;11.07;;;4.03;;
28353;SDS011;15603;50.878;8.036;2023-03-16T04:33:44;18.02;;;4.57;;
28353;SDS011;15603;50.878;8.036;2023-03-16T04:36:12;11.18;;;3.83;;
28353;SDS011;15603;50.878;8.036;2023-03-16T04:38:39;19.17;;;4.32;;
28353;SDS011;15603;50.878;8.036;2023-03-16T04:41:08;13.68;;;4.57;;
28353;SDS011;15603;50.878;8.036;2023-03-16T04:43:43;14.68;;;4.00;;
28353;SDS011;15603;50.878;8.036;2023-03-16T04:46:19;13.30;;;4.10;;
28353;SDS011;15603;50.878;8.036;2023-03-16T04:48:47;12.40;;;3.67;;
28353;SDS011;15603;50.878;8.036;2023-03-16T04:51:14;12.70;;;3.83;;
28353;SDS011;15603;50.878;8.036;2023-03-16T04:53:50;17.50;;;4.68;;
28353;SDS011;15603;50.878;8.036;2023-03-16T04:56:24;8.13;;;3.70;;
28353;SDS011;15603;50.878;8.036;2023-03-16T05:01:28;12.45;;;4.20;;
28353;SDS011;15603;50.878;8.036;2023-03-16T05:03:59;9.70;;;3.83;;
28353;SDS011;15603;50.878;8.036;2023-03-16T05:06:30;12.20;;;4.20;;
28353;SDS011;15603;50.878;8.036;2023-03-16T05:08:59;16.42;;;3.95;;
28353;SDS011;15603;50.878;8.036;2023-03-16T05:11:27;10.90;;;3.38;;
28353;SDS011;15603;50.878;8.036;2023-03-16T05:13:58;11.02;;;4.13;;
28353;SDS011;15603;50.878;8.036;2023-03-16T05:16:25;10.07;;;3.97;;
28353;SDS011;15603;50.878;8.036;2023-03-16T05:18:53;8.95;;;4.03;;
28353;SDS011;15603;50.878;8.036;2023-03-16T05:21:20;12.75;;;4.82;;
28353;SDS011;15603;50.878;8.036;2023-03-16T05:23:53;19.85;;;5.10;;
28353;SDS011;15603;50.878;8.036;2023-03-16T05:26:21;15.25;;;4.30;;
28353;SDS011;15603;50.878;8.036;2023-03-16T05:28:51;12.75;;;3.72;;
28353;SDS011;15603;50.878;8.036;2023-03-16T05:31:23;23.70;;;4.90;;
28353;SDS011;15603;50.878;8.036;2023-03-16T05:33:56;10.10;;;4.25;;
28353;SDS011;15603;50.878;8.036;2023-03-16T05:36:23;13.05;;;5.13;;
28353;SDS011;15603;50.878;8.036;2023-03-16T05:38:54;13.70;;;4.00;;
28353;SDS011;15603;50.878;8.036;2023-03-16T05:41:30;14.30;;;5.00;;
28353;SDS011;15603;50.878;8.036;2023-03-16T05:44:02;10.37;;;3.83;;
28353;SDS011;15603;50.878;8.036;2023-03-16T05:46:48;13.15;;;4.20;;
28353;SDS011;15603;50.878;8.036;2023-03-16T05:49:16;16.10;;;5.55;;
28353;SDS011;15603;50.878;8.036;2023-03-16T05:51:44;11.70;;;4.75;;
28353;SDS011;15603;50.878;8.036;2023-03-16T05:54:11;12.73;;;5.00;;
28353;SDS011;15603;50.878;8.036;2023-03-16T05:59:11;12.38;;;3.95;;
28353;SDS011;15603;50.878;8.036;2023-03-16T06:01:38;10.68;;;4.45;;
28353;SDS011;15603;50.878;8.036;2023-03-16T06:04:06;15.70;;;4.20;;
28353;SDS011;15603;50.878;8.036;2023-03-16T06:06:38;11.32;;;4.55;;
28353;SDS011;15603;50.878;8.036;2023-03-16T06:09:19;12.52;;;4.72;;
28353;SDS011;15603;50.878;8.036;2023-03-16T06:11:46;9.18;;;4.00;;
28353;SDS011;15603;50.878;8.036;2023-03-16T06:14:15;12.25;;;4.15;;
28353;SDS011;15603;50.878;8.036;2023-03-16T06:16:42;8.25;;;4.10;;
28353;SDS011;15603;50.878;8.036;2023-03-16T06:19:10;16.70;;;4.85;;
28353;SDS011;15603;50.878;8.036;2023-03-16T06:21:37;13.57;;;4.32;;
28353;SDS011;15603;50.878;8.036;2023-03-16T06:24:08;11.35;;;4.85;;
28353;SDS011;15603;50.878;8.036;2023-03-16T06:26:35;15.55;;;4.57;;
28353;SDS011;15603;50.878;8.036;2023-03-16T06:29:06;9.90;;;4.72;;
28353;SDS011;15603;50.878;8.036;2023-03-16T06:31:35;9.10;;;4.10;;
28353;SDS011;15603;50.878;8.036;2023-03-16T06:34:02;11.30;;;4.43;;
28353;SDS011;15603;50.878;8.036;2023-03-16T06:36:30;8.32;;;4.55;;
28353;SDS011;15603;50.878;8.036;2023-03-16T06:39:00;20.15;;;4.95;;
28353;SDS011;15603;50.878;8.036;2023-03-16T06:41:41;13.80;;;4.35;;
28353;SDS011;15603;50.878;8.036;2023-03-16T06:44:12;14.30;;;3.88;;
28353;SDS011;15603;50.878;8.036;2023-03-16T06:46:49;15.05;;;4.18;;
28353;SDS011;15603;50.878;8.036;2023-03-16T06:49:16;13.50;;;4.75;;
28353;SDS011;15603;50.878;8.036;2023-03-16T06:51:43;13.85;;;4.75;;
28353;SDS011;15603;50.878;8.036;2023-03-16T06:54:11;11.85;;;4.05;;
28353;SDS011;15603;50.878;8.036;2023-03-16T06:56:39;12.43;;;4.03;;
28353;SDS011;15603;50.878;8.036;2023-03-16T06:59:06;9.50;;;4.10;;
28353;SDS011;15603;50.878;8.036;2023-03-16T07:01:35;17.10;;;5.25;;
28353;SDS011;15603;50.878;8.036;2023-03-16T07:04:02;12.05;;;4.47;;
28353;SDS011;15603;50.878;8.036;2023-03-16T07:06:31;9.55;;;4.22;;
28353;SDS011;15603;50.878;8.036;2023-03-16T07:08:58;12.48;;;3.97;;
28353;SDS011;15603;50.878;8.036;2023-03-16T07:11:28;8.30;;;3.50;;
28353;SDS011;15603;50.878;8.036;2023-03-16T07:13:56;12.85;;;4.40;;
28353;SDS011;15603;50.878;8.036;2023-03-16T07:16:25;10.27;;;4.15;;
28353;SDS011;15603;50.878;8.036;2023-03-16T07:18:53;10.45;;;3.70;;
28353;SDS011;15603;50.878;8.036;2023-03-16T07:21:20;9.68;;;3.90;;
28353;SDS011;15603;50.878;8.036;2023-03-16T07:23:48;9.50;;;3.60;;
28353;SDS011;15603;50.878;8.036;2023-03-16T07:28:52;10.77;;;3.33;;
28353;SDS011;15603;50.878;8.036;2023-03-16T07:31:19;6.82;;;3.58;;
28353;SDS011;15603;50.878;8.036;2023-03-16T07:33:47;7.38;;;3.53;;
28353;SDS011;15603;50.878;8.036;2023-03-16T07:36:22;7.18;;;3.45;;
28353;SDS011;15603;50.878;8.036;2023-03-16T07:38:54;8.07;;;3.53;;
28353;SDS011;15603;50.878;8.036;2023-03-16T07:41:21;9.63;;;4.40;;
28353;SDS011;15603;50.878;8.036;2023-03-16T07:43:49;9.55;;;3.45;;
28353;SDS011;15603;50.878;8.036;2023-03-16T07:46:16;8.48;;;3.63;;
28353;SDS011;15603;50.878;8.036;2023-03-16T07:48:43;12.57;;;3.42;;
28353;SDS011;15603;50.878;8.036;2023-03-16T07:51:11;7.97;;;3.55;;
28353;SDS011;15603;50.878;8.036;2023-03-16T07:53:41;11.45;;;4.03;;
28353;SDS011;15603;50.878;8.036;2023-03-16T07:56:30;12.63;;;3.70;;
28353;SDS011;15603;50.878;8.036;2023-03-16T07:59:20;9.02;;;3.65;;
28353;SDS011;15603;50.878;8.036;2023-03-16T08:01:47;9.65;;;3.40;;
28353;SDS011;15603;50.878;8.036;2023-03-16T08:04:14;7.25;;;3.55;;
28353;SDS011;15603;50.878;8.036;2023-03-16T08:06:41;11.02;;;4.00;;
28353;SDS011;15603;50.878;8.036;2023-03-16T08:09:09;9.63;;;2.97;;
28353;SDS011;15603;50.878;8.036;2023-03-16T08:11:38;7.50;;;3.67;;
28353;SDS011;15603;50.878;8.036;2023-03-16T08:14:05;8.82;;;3.63;;
28353;SDS011;15603;50.878;8.036;2023-03-16T08:16:52;14.80;;;3.55;;
28353;SDS011;15603;50.878;8.036;2023-03-16T08:19:20;11.73;;;3.50;;
28353;SDS011;15603;50.878;8.036;2023-03-16T08:21:49;7.03;;;3.55;;
28353;SDS011;15603;50.878;8.036;2023-03-16T08:24:31;6.90;;;3.40;;
28353;SDS011;15603;50.878;8.036;2023-03-16T08:26:59;12.65;;;3.58;;
28353;SDS011;15603;50.878;8.036;2023-03-16T08:29:28;5.70;;;2.88;;
28353;SDS011;15603;50.878;8.036;2023-03-16T08:31:56;6.45;;;3.20;;
28353;SDS011;15603;50.878;8.036;2023-03-16T08:36:56;10.52;;;3.25;;
28353;SDS011;15603;50.878;8.036;2023-03-16T08:39:23;15.90;;;3.58;;
28353;SDS011;15603;50.878;8.036;2023-03-16T08:41:50;8.57;;;3.00;;
28353;SDS011;15603;50.878;8.036;2023-03-16T08:44:27;6.30;;;3.17;;
28353;SDS011;15603;50.878;8.036;2023-03-16T08:46:54;8.40;;;3.38;;
28353;SDS011;15603;50.878;8.036;2023-03-16T08:49:21;6.97;;;3.35;;
28353;SDS011;15603;50.878;8.036;2023-03-16T08:51:58;6.15;;;3.17;;
28353;SDS011;15603;50.878;8.036;2023-03-16T08:54:26;5.95;;;2.85;;
28353;SDS011;15603;50.878;8.036;2023-03-16T08:56:53;5.43;;;2.67;;
28353;SDS011;15603;50.878;8.036;2023-03-16T08:59:20;8.30;;;2.95;;
28353;SDS011;15603;50.878;8.036;2023-03-16T09:01:56;5.95;;;2.60;;
28353;SDS011;15603;50.878;8.036;2023-03-16T09:04:23;9.32;;;2.85;;
28353;SDS011;15603;50.878;8.036;2023-03-16T09:06:51;9.85;;;2.97;;
28353;SDS011;15603;50.878;8.036;2023-03-16T09:09:34;6.28;;;2.70;;
28353;SDS011;15603;50.878;8.036;2023-03-16T09:12:02;28.92;;;3.50;;
28353;SDS011;15603;50.878;8.036;2023-03-16T09:14:30;34.97;;;4.68;;
28353;SDS011;15603;50.878;8.036;2023-03-16T09:16:57;16.92;;;3.75;;
28353;SDS011;15603;50.878;8.036;2023-03-16T09:19:25;6.95;;;2.90;;
28353;SDS011;15603;50.878;8.036;2023-03-16T09:21:54;8.55;;;3.00;;
28353;SDS011;15603;50.878;8.036;2023-03-16T09:24:21;12.05;;;2.92;;
28353;SDS011;15603;50.878;8.036;2023-03-16T09:26:50;8.85;;;2.83;;
28353;SDS011;15603;50.878;8.036;2023-03-16T09:29:18;6.72;;;2.85;;
28353;SDS011;15603;50.878;8.036;2023-03-16T09:31:45;12.27;;;3.15;;
28353;SDS011;15603;50.878;8.036;2023-03-16T09:34:13;7.75;;;2.78;;
28353;SDS011;15603;50.878;8.036;2023-03-16T09:36:40;5.63;;;2.70;;
28353;SDS011;15603;50.878;8.036;2023-03-16T09:39:07;6.72;;;3.00;;
28353;SDS011;15603;50.878;8.036;2023-03-16T09:41:42;6.80;;;3.40;;
28353;SDS011;15603;50.878;8.036;2023-03-16T09:47:20;7.80;;;3.05;;
28353;SDS011;15603;50.878;8.036;2023-03-16T09:49:53;7.45;;;2.28;;
28353;SDS011;15603;50.878;8.036;2023-03-16T09:52:28;6.65;;;2.38;;
28353;SDS011;15603;50.878;8.036;2023-03-16T09:57:49;4.03;;;2.30;;
28353;SDS011;15603;50.878;8.036;2023-03-16T10:00:23;6.03;;;2.45;;
28353;SDS011;15603;50.878;8.036;2023-03-16T10:05:53;4.97;;;2.33;;
28353;SDS011;15603;50.878;8.036;2023-03-16T10:08:24;5.82;;;2.53;;
28353;SDS011;15603;50.878;8.036;2023-03-16T10:11:07;6.93;;;2.42;;
28353;SDS011;15603;50.878;8.036;2023-03-16T10:16:48;6.38;;;2.60;;
28353;SDS011;15603;50.878;8.036;2023-03-16T10:19:22;7.43;;;2.45;;
28353;SDS011;15603;50.878;8.036;2023-03-16T10:21:59;3.55;;;2.00;;
28353;SDS011;15603;50.878;8.036;2023-03-16T10:27:31;10.55;;;2.20;;
28353;SDS011;15603;50.878;8.036;2023-03-16T10:30:03;10.18;;;2.75;;
28353;SDS011;15603;50.878;8.036;2023-03-16T10:32:55;4.30;;;1.90;;
28353;SDS011;15603;50.878;8.036;2023-03-16T10:43:50;8.23;;;2.63;;
28353;SDS011;15603;50.878;8.036;2023-03-16T10:46:18;5.72;;;2.63;;
28353;SDS011;15603;50.878;8.036;2023-03-16T10:48:55;9.25;;;2.15;;
28353;SDS011;15603;50.878;8.036;2023-03-16T10:51:28;5.35;;;2.13;;
28353;SDS011;15603;50.878;8.036;2023-03-16T10:54:05;5.80;;;2.35;;
28353;SDS011;15603;50.878;8.036;2023-03-16T10:56:40;5.25;;;2.00;;
28353;SDS011;15603;50.878;8.036;2023-03-16T10:59:14;8.88;;;1.95;;
28353;SDS011;15603;50.878;8.036;2023-03-16T11:01:53;5.32;;;1.88;;
28353;SDS011;15603;50.878;8.036;2023-03-16T11:04:20;6.50;;;1.83;;
28353;SDS011;15603;50.878;8.036;2023-03-16T11:06:56;2.88;;;1.35;;
28353;SDS011;15603;50.878;8.036;2023-03-16T11:09:31;4.63;;;2.08;;
28353;SDS011;15603;50.878;8.036;2023-03-16T11:12:00;9.05;;;1.92;;
28353;SDS011;15603;50.878;8.036;2023-03-16T11:14:42;6.80;;;1.90;;
28353;SDS011;15603;50.878;8.036;2023-03-16T11:17:15;17.40;;;2.28;;
28353;SDS011;15603;50.878;8.036;2023-03-16T11:19:48;14.68;;;2.28;;
28353;SDS011;15603;50.878;8.036;2023-03-16T11:22:23;8.85;;;2.15;;
28353;SDS011;15603;50.878;8.036;2023-03-16T11:27:41;2.20;;;1.33;;
28353;SDS011;15603;50.878;8.036;2023-03-16T11:32:46;6.05;;;1.70;;
28353;SDS011;15603;50.878;8.036;2023-03-16T11:35:17;4.07;;;1.52;;
28353;SDS011;15603;50.878;8.036;2023-03-16T11:40:59;5.15;;;2.38;;
28353;SDS011;15603;50.878;8.036;2023-03-16T11:46:25;4.60;;;1.40;;
28353;SDS011;15603;50.878;8.036;2023-03-16T12:00:48;2.47;;;1.67;;
28353;SDS011;15603;50.878;8.036;2023-03-16T12:03:33;7.32;;;2.28;;
28353;SDS011;15603;50.878;8.036;2023-03-16T12:06:14;3.60;;;1.90;;
28353;SDS011;15603;50.878;8.036;2023-03-16T12:08:56;5.30;;;1.92;;
28353;SDS011;15603;50.878;8.036;2023-03-16T12:11:32;4.82;;;2.00;;
28353;SDS011;15603;50.878;8.036;2023-03-16T12:16:48;13.45;;;3.35;;
28353;SDS011;15603;50.878;8.036;2023-03-16T12:20:16;8.77;;;3.20;;
28353;SDS011;15603;50.878;8.036;2023-03-16T12:22:38;7.95;;;2.60;;
28353;SDS011;15603;50.878;8.036;2023-03-16T12:25:20;4.95;;;2.00;;
28353;SDS011;15603;50.878;8.036;2023-03-16T12:27:51;10.57;;;2.13;;
28353;SDS011;15603;50.878;8.036;2023-03-16T12:33:20;7.43;;;2.35;;
28353;SDS011;15603;50.878;8.036;2023-03-16T12:38:52;6.40;;;2.00;;
28353;SDS011;15603;50.878;8.036;2023-03-16T12:44:38;9.65;;;1.85;;
28353;SDS011;15603;50.878;8.036;2023-03-16T12:50:12;5.57;;;2.15;;
28353;SDS011;15603;50.878;8.036;2023-03-16T12:52:42;5.15;;;2.00;;
28353;SDS011;15603;50.878;8.036;2023-03-16T12:55:14;5.68;;;2.33;;
28353;SDS011;15603;50.878;8.036;2023-03-16T12:57:43;4.85;;;2.13;;
28353;SDS011;15603;50.878;8.036;2023-03-16T13:00:14;6.13;;;1.98;;
28353;SDS011;15603;50.878;8.036;2023-03-16T13:02:54;7.10;;;2.40;;
28353;SDS011;15603;50.878;8.036;2023-03-16T13:05:30;6.57;;;2.30;;
28353;SDS011;15603;50.878;8.036;2023-03-16T13:08:12;7.18;;;2.30;;
28353;SDS011;15603;50.878;8.036;2023-03-16T13:13:10;4.82;;;2.13;;
28353;SDS011;15603;50.878;8.036;2023-03-16T13:15:41;8.15;;;1.60;;
28353;SDS011;15603;50.878;8.036;2023-03-16T13:23:20;10.25;;;2.47;;
28353;SDS011;15603;50.878;8.036;2023-03-16T13:26:00;8.65;;;2.30;;
28353;SDS011;15603;50.878;8.036;2023-03-16T13:28:30;8.05;;;2.00;;
28353;SDS011;15603;50.878;8.036;2023-03-16T13:31:01;3.92;;;1.85;;
28353;SDS011;15603;50.878;8.036;2023-03-16T13:33:29;11.73;;;2.45;;
28353;SDS011;15603;50.878;8.036;2023-03-16T13:35:58;13.00;;;1.75;;
28353;SDS011;15603;50.878;8.036;2023-03-16T13:38:26;2.10;;;1.33;;
28353;SDS011;15603;50.878;8.036;2023-03-16T13:40:55;4.75;;;1.60;;
28353;SDS011;15603;50.878;8.036;2023-03-16T13:43:28;3.90;;;2.05;;
28353;SDS011;15603;50.878;8.036;2023-03-16T13:46:13;246.98;;;22.98;;
28353;SDS011;15603;50.878;8.036;2023-03-16T13:48:41;41.70;;;5.15;;
28353;SDS011;15603;50.878;8.036;2023-03-16T13:51:12;4.90;;;1.60;;
28353;SDS011;15603;50.878;8.036;2023-03-16T13:53:43;5.20;;;1.10;;
28353;SDS011;15603;50.878;8.036;2023-03-16T13:56:12;3.63;;;1.58;;
28353;SDS011;15603;50.878;8.036;2023-03-16T13:58:46;12.05;;;1.80;;
28353;SDS011;15603;50.878;8.036;2023-03-16T14:01:23;11.65;;;1.75;;
28353;SDS011;15603;50.878;8.036;2023-03-16T14:03:54;3.45;;;1.40;;
28353;SDS011;15603;50.878;8.036;2023-03-16T14:06:23;8.35;;;1.20;;
28353;SDS011;15603;50.878;8.036;2023-03-16T14:11:24;5.53;;;0.98;;
28353;SDS011;15603;50.878;8.036;2023-03-16T14:13:53;12.93;;;2.05;;
28353;SDS011;15603;50.878;8.036;2023-03-16T14:16:23;5.45;;;1.50;;
28353;SDS011;15603;50.878;8.036;2023-03-16T14:19:02;4.07;;;1.38;;
28353;SDS011;15603;50.878;8.036;2023-03-16T14:21:32;3.45;;;1.10;;
28353;SDS011;15603;50.878;8.036;2023-03-16T14:24:03;5.43;;;0.80;;
28353;SDS011;15603;50.878;8.036;2023-03-16T14:26:54;5.28;;;1.15;;
28353;SDS011;15603;50.878;8.036;2023-03-16T14:29:22;5.72;;;1.50;;
28353;SDS011;15603;50.878;8.036;2023-03-16T14:31:52;6.90;;;1.15;;
28353;SDS011;15603;50.878;8.036;2023-03-16T14:37:03;3.03;;;0.95;;
28353;SDS011;15603;50.878;8.036;2023-03-16T14:39:31;8.70;;;1.15;;
28353;SDS011;15603;50.878;8.036;2023-03-16T14:42:01;12.27;;;1.60;;
28353;SDS011;15603;50.878;8.036;2023-03-16T14:44:31;8.73;;;2.33;;
28353;SDS011;15603;50.878;8.036;2023-03-16T14:47:01;5.65;;;1.73;;
28353;SDS011;15603;50.878;8.036;2023-03-16T14:49:31;1.55;;;0.93;;
28353;SDS011;15603;50.878;8.036;2023-03-16T14:52:02;3.63;;;1.15;;
28353;SDS011;15603;50.878;8.036;2023-03-16T14:54:33;3.53;;;1.45;;
28353;SDS011;15603;50.878;8.036;2023-03-16T14:57:02;2.13;;;1.00;;
28353;SDS011;15603;50.878;8.036;2023-03-16T15:02:01;5.40;;;1.55;;
28353;SDS011;15603;50.878;8.036;2023-03-16T15:04:31;3.03;;;1.15;;
28353;SDS011;15603;50.878;8.036;2023-03-16T15:07:00;3.63;;;1.00;;
28353;SDS011;15603;50.878;8.036;2023-03-16T15:12:14;3.70;;;1.23;;
28353;SDS011;15603;50.878;8.036;2023-03-16T15:14:44;8.82;;;1.88;;
28353;SDS011;15603;50.878;8.036;2023-03-16T15:17:30;1.90;;;1.15;;
28353;SDS011;15603;50.878;8.036;2023-03-16T15:19:58;7.15;;;1.70;;
28353;SDS011;15603;50.878;8.036;2023-03-16T15:22:30;3.70;;;1.58;;
28353;SDS011;15603;50.878;8.036;2023-03-16T15:25:17;5.28;;;1.00;;
28353;SDS011;15603;50.878;8.036;2023-03-16T15:27:45;22.25;;;2.95;;
28353;SDS011;15603;50.878;8.036;2023-03-16T15:30:14;1.83;;;0.90;;
28353;SDS011;15603;50.878;8.036;2023-03-16T15:32:41;23.40;;;3.42;;
28353;SDS011;15603;50.878;8.036;2023-03-16T15:35:09;9.93;;;1.73;;
28353;SDS011;15603;50.878;8.036;2023-03-16T15:37:37;7.32;;;1.15;;
28353;SDS011;15603;50.878;8.036;2023-03-16T15:40:18;10.10;;;1.40;;
28353;SDS011;15603;50.878;8.036;2023-03-16T15:42:48;2.97;;;1.35;;
28353;SDS011;15603;50.878;8.036;2023-03-16T15:45:16;8.82;;;1.70;;
28353;SDS011;15603;50.878;8.036;2023-03-16T15:47:49;5.88;;;1.45;;
28353;SDS011;15603;50.878;8.036;2023-03-16T15:50:19;5.20;;;1.27;;
28353;SDS011;15603;50.878;8.036;2023-03-16T15:52:48;11.82;;;1.73;;
28353;SDS011;15603;50.878;8.036;2023-03-16T15:55:26;6.07;;;1.52;;
28353;SDS011;15603;50.878;8.036;2023-03-16T15:58:04;7.85;;;1.70;;
28353;SDS011;15603;50.878;8.036;2023-03-16T16:00:32;5.43;;;1.73;;
28353;SDS011;15603;50.878;8.036;2023-03-16T16:03:02;5.88;;;1.77;;
28353;SDS011;15603;50.878;8.036;2023-03-16T16:05:30;11.45;;;2.33;;
28353;SDS011;15603;50.878;8.036;2023-03-16T16:07:58;5.28;;;2.05;;
28353;SDS011;15603;50.878;8.036;2023-03-16T16:10:25;9.43;;;2.42;;
28353;SDS011;15603;50.878;8.036;2023-03-16T16:12:55;8.00;;;2.35;;
28353;SDS011;15603;50.878;8.036;2023-03-16T16:15:24;6.28;;;2.50;;
28353;SDS011;15603;50.878;8.036;2023-03-16T16:17:55;9.38;;;2.38;;
28353;SDS011;15603;50.878;8.036;2023-03-16T16:20:43;3.40;;;2.58;;
28353;SDS011;15603;50.878;8.036;2023-03-16T16:23:10;9.95;;;2.63;;
28353;SDS011;15603;50.878;8.036;2023-03-16T16:25:38;7.43;;;2.30;;
28353;SDS011;15603;50.878;8.036;2023-03-16T16:28:11;4.18;;;2.08;;
28353;SDS011;15603;50.878;8.036;2023-03-16T16:30:40;6.28;;;2.30;;
28353;SDS011;15603;50.878;8.036;2023-03-16T16:33:20;7.85;;;2.65;;
28353;SDS011;15603;50.878;8.036;2023-03-16T16:35:54;6.72;;;2.80;;
28353;SDS011;15603;50.878;8.036;2023-03-16T16:38:30;6.28;;;2.65;;
28353;SDS011;15603;50.878;8.036;2023-03-16T16:40:58;4.93;;;2.97;;
28353;SDS011;15603;50.878;8.036;2023-03-16T16:43:35;12.63;;;2.90;;